createdAt,value
2023-07-25T00:00:01.103Z,1.50
2023-07-25T00:02:29.252Z,1.60
2023-07-25T00:04:57.340Z,1.67
2023-07-25T00:07:25.478Z,1.73
2023-07-25T00:09:53.531Z,1.30
2023-07-25T00:12:22.956Z,1.17
2023-07-25T00:14:51.238Z,1.50
2023-07-25T00:17:19.381Z,1.38
2023-07-25T00:19:47.440Z,1.67
2023-07-25T00:22:15.532Z,1.60
2023-07-25T00:24:43.651Z,1.77
2023-07-25T00:27:11.893Z,1.45
2023-07-25T00:29:41.472Z,1.70
2023-07-25T00:32:10.270Z,1.70
2023-07-25T00:34:38.428Z,1.80
2023-07-25T00:37:07.105Z,1.60
2023-07-25T00:39:35.281Z,1.70
2023-07-25T00:42:03.408Z,1.40
2023-07-25T00:44:31.559Z,1.63
2023-07-25T00:47:01.168Z,1.77
2023-07-25T00:49:29.772Z,1.55
2023-07-25T00:51:57.997Z,1.90
2023-07-25T00:54:26.581Z,1.70
2023-07-25T00:56:54.714Z,1.90
2023-07-25T00:59:22.832Z,1.85
2023-07-25T01:01:51.109Z,1.63
2023-07-25T01:04:20.601Z,1.60
2023-07-25T01:06:49.754Z,1.80
2023-07-25T01:09:17.898Z,1.65
2023-07-25T01:11:46.012Z,1.77
2023-07-25T01:14:14.143Z,1.85
2023-07-25T01:16:42.363Z,1.85
2023-07-25T01:19:13.048Z,1.67
2023-07-25T01:21:42.662Z,1.67
2023-07-25T01:24:12.254Z,1.50
2023-07-25T01:26:40.368Z,1.92
2023-07-25T01:29:08.456Z,2.00
2023-07-25T01:31:36.547Z,1.55
2023-07-25T01:34:04.688Z,1.90
2023-07-25T01:36:32.795Z,1.75
2023-07-25T01:39:00.884Z,1.67
2023-07-25T01:41:30.494Z,1.90
2023-07-25T01:43:58.764Z,1.67
2023-07-25T01:46:26.924Z,1.73
2023-07-25T01:48:55.042Z,1.90
2023-07-25T01:51:23.119Z,1.70
2023-07-25T01:53:51.840Z,1.95
2023-07-25T01:56:19.887Z,1.90
2023-07-25T01:58:49.453Z,1.85
2023-07-25T02:01:17.582Z,2.08
2023-07-25T02:03:45.727Z,1.55
2023-07-25T02:06:13.833Z,2.00
2023-07-25T02:08:42.043Z,1.90
2023-07-25T02:11:10.481Z,2.10
2023-07-25T02:13:38.529Z,2.10
2023-07-25T02:16:08.241Z,1.90
2023-07-25T02:18:36.350Z,2.03
2023-07-25T02:21:04.676Z,1.80
2023-07-25T02:23:32.897Z,1.80
2023-07-25T02:26:01.261Z,1.92
2023-07-25T02:28:29.368Z,1.92
2023-07-25T02:30:57.533Z,1.98
2023-07-25T02:33:27.037Z,1.98
2023-07-25T02:35:55.192Z,2.00
2023-07-25T02:38:23.847Z,1.88
2023-07-25T02:40:51.912Z,1.88
2023-07-25T02:43:20.138Z,1.80
2023-07-25T02:45:48.187Z,2.03
2023-07-25T02:48:16.315Z,1.75
2023-07-25T02:50:47.376Z,2.15
2023-07-25T02:53:15.515Z,1.88
2023-07-25T02:55:43.623Z,1.95
2023-07-25T02:58:13.638Z,2.08
2023-07-25T03:00:42.181Z,2.10
2023-07-25T03:03:10.550Z,2.00
2023-07-25T03:05:38.682Z,1.92
2023-07-25T03:08:08.228Z,1.98
2023-07-25T03:10:36.406Z,1.98
2023-07-25T03:13:04.570Z,1.95
2023-07-25T03:15:32.664Z,2.05
2023-07-25T03:18:00.824Z,1.92
2023-07-25T03:20:28.958Z,2.08
2023-07-25T03:22:57.886Z,2.03
2023-07-25T03:25:27.627Z,1.75
2023-07-25T03:27:55.716Z,1.98
2023-07-25T03:30:23.852Z,2.35
2023-07-25T03:32:51.994Z,1.73
2023-07-25T03:35:20.251Z,1.85
2023-07-25T03:37:48.351Z,2.25
2023-07-25T03:40:16.478Z,1.92
2023-07-25T03:42:45.919Z,2.05
2023-07-25T03:45:13.997Z,2.33
2023-07-25T03:47:42.118Z,2.08
2023-07-25T03:50:10.879Z,1.80
2023-07-25T03:52:38.958Z,2.22
2023-07-25T03:55:08.466Z,2.30
2023-07-25T03:57:36.603Z,2.05
2023-07-25T04:00:07.699Z,2.10
2023-07-25T04:02:40.226Z,2.35
2023-07-25T04:05:09.025Z,2.28
2023-07-25T04:07:37.242Z,2.20
2023-07-25T04:10:06.725Z,2.42
2023-07-25T04:12:34.913Z,2.45
2023-07-25T04:15:03.621Z,2.85
2023-07-25T04:17:33.133Z,2.65
2023-07-25T04:20:01.230Z,2.50
2023-07-25T04:22:29.252Z,2.50
2023-07-25T04:24:57.569Z,2.53
2023-07-25T04:27:25.727Z,2.55
2023-07-25T04:29:53.977Z,2.60
2023-07-25T04:32:22.054Z,2.50
2023-07-25T04:34:51.550Z,2.30
2023-07-25T04:37:19.643Z,2.47
2023-07-25T04:39:47.792Z,2.20
2023-07-25T04:42:16.207Z,2.70
2023-07-25T04:44:45.765Z,2.42
2023-07-25T04:47:13.875Z,2.50
2023-07-25T04:49:41.974Z,2.38
2023-07-25T04:52:11.554Z,2.70
2023-07-25T04:54:39.992Z,2.58
2023-07-25T04:57:08.529Z,2.55
2023-07-25T04:59:36.590Z,2.70
2023-07-25T05:02:04.824Z,2.30
2023-07-25T05:04:32.906Z,2.92
2023-07-25T05:07:00.968Z,2.78
2023-07-25T05:09:30.456Z,2.63
2023-07-25T05:11:58.677Z,2.15
2023-07-25T05:14:26.812Z,2.72
2023-07-25T05:16:54.890Z,2.42
2023-07-25T05:19:22.989Z,2.60
2023-07-25T05:21:51.069Z,2.50
2023-07-25T05:24:19.155Z,2.65
2023-07-25T05:26:48.614Z,2.72
2023-07-25T05:29:16.680Z,2.58
2023-07-25T05:31:45.045Z,2.63
2023-07-25T05:34:13.152Z,2.50
2023-07-25T05:36:41.188Z,2.50
2023-07-25T05:39:09.348Z,2.75
2023-07-25T05:41:44.893Z,2.58
2023-07-25T05:44:14.401Z,2.92
2023-07-25T05:46:42.484Z,2.78
2023-07-25T05:49:10.676Z,3.15
2023-07-25T05:51:38.725Z,2.75
2023-07-25T05:54:06.851Z,2.50
2023-07-25T05:56:34.954Z,2.58
2023-07-25T05:59:03.097Z,2.70
2023-07-25T06:01:32.856Z,2.63
2023-07-25T06:04:01.209Z,2.65
2023-07-25T06:06:29.630Z,2.08
2023-07-25T06:08:57.786Z,2.10
2023-07-25T06:11:26.039Z,2.20
2023-07-25T06:13:55.174Z,2.20
2023-07-25T06:16:23.334Z,2.35
2023-07-25T06:18:52.811Z,1.95
2023-07-25T06:21:20.931Z,2.03
2023-07-25T06:23:49.186Z,2.00
2023-07-25T06:26:17.443Z,2.08
2023-07-25T06:28:45.868Z,2.60
2023-07-25T06:31:14.137Z,2.30
2023-07-25T06:33:42.300Z,2.30
2023-07-25T06:36:11.741Z,2.30
2023-07-25T06:38:39.849Z,2.55
2023-07-25T06:41:07.958Z,2.00
2023-07-25T06:43:36.027Z,2.28
2023-07-25T06:46:05.071Z,1.85
2023-07-25T06:48:33.180Z,1.83
2023-07-25T06:51:01.353Z,2.13
2023-07-25T06:53:30.811Z,2.00
2023-07-25T06:55:58.880Z,1.90
2023-07-25T06:58:27.005Z,2.38
2023-07-25T07:00:55.105Z,1.80
2023-07-25T07:03:23.252Z,1.80
2023-07-25T07:05:55.207Z,1.80
2023-07-25T07:08:23.569Z,2.10
2023-07-25T07:10:55.985Z,1.60
2023-07-25T07:13:25.642Z,1.77
2023-07-25T07:15:53.911Z,1.95
2023-07-25T07:18:22.027Z,2.22
2023-07-25T07:20:51.399Z,1.80
2023-07-25T07:23:19.496Z,1.63
2023-07-25T07:25:48.171Z,1.30
2023-07-25T07:28:17.689Z,1.90
2023-07-25T07:30:50.999Z,1.60
2023-07-25T07:33:20.376Z,2.00
2023-07-25T07:35:48.461Z,1.75
2023-07-25T07:38:16.564Z,1.70
2023-07-25T07:40:44.706Z,1.83
2023-07-25T07:43:12.790Z,1.67
2023-07-25T07:45:42.417Z,1.85
2023-07-25T07:48:10.556Z,1.73
2023-07-25T07:50:38.737Z,1.58
2023-07-25T07:53:07.096Z,1.63
2023-07-25T07:55:35.787Z,1.60
2023-07-25T07:58:04.340Z,1.85
2023-07-25T08:00:34.550Z,1.63
2023-07-25T08:03:04.637Z,1.73
2023-07-25T08:05:32.891Z,1.55
2023-07-25T08:08:01.065Z,1.45
2023-07-25T08:10:29.623Z,1.58
2023-07-25T08:12:57.778Z,2.17
2023-07-25T08:15:26.192Z,1.40
2023-07-25T08:17:54.465Z,2.00
2023-07-25T08:20:24.120Z,1.80
2023-07-25T08:22:52.330Z,2.05
2023-07-25T08:25:20.423Z,1.77
2023-07-25T08:27:48.505Z,1.67
2023-07-25T08:30:16.645Z,1.63
2023-07-25T08:32:44.816Z,1.77
2023-07-25T08:35:12.934Z,1.67
2023-07-25T08:37:42.323Z,1.38
2023-07-25T08:40:13.097Z,1.55
2023-07-25T08:42:44.581Z,1.17
2023-07-25T08:45:13.445Z,1.40
2023-07-25T08:47:44.928Z,1.42
2023-07-25T08:50:18.289Z,1.52
2023-07-25T08:52:53.816Z,1.35
2023-07-25T08:55:23.305Z,1.42
2023-07-25T08:57:52.777Z,1.50
2023-07-25T09:00:22.371Z,1.48
2023-07-25T09:02:53.771Z,1.67
2023-07-25T09:05:23.542Z,1.50
2023-07-25T09:07:53.020Z,1.58
2023-07-25T09:10:21.460Z,1.63
2023-07-25T09:12:49.595Z,1.42
2023-07-25T09:15:17.789Z,1.40
2023-07-25T09:17:45.974Z,1.30
2023-07-25T09:20:15.061Z,1.50
2023-07-25T09:22:49.394Z,1.50
2023-07-25T09:25:18.906Z,1.50
2023-07-25T09:27:48.015Z,1.38
2023-07-25T09:30:16.732Z,1.52
2023-07-25T09:32:48.884Z,1.58
2023-07-25T09:35:17.602Z,1.52
2023-07-25T09:37:54.432Z,1.65
2023-07-25T09:40:24.453Z,1.38
2023-07-25T09:42:52.867Z,1.30
2023-07-25T09:45:21.778Z,1.85
2023-07-25T09:47:54.208Z,1.45
2023-07-25T09:50:27.817Z,1.45
2023-07-25T09:52:55.937Z,1.35
2023-07-25T09:55:26.390Z,1.65
2023-07-25T09:57:55.436Z,1.50
2023-07-25T10:00:24.911Z,1.40
2023-07-25T10:02:54.299Z,1.60
2023-07-25T10:05:23.486Z,1.38
2023-07-25T10:07:56.870Z,1.88
2023-07-25T10:10:28.701Z,1.50
2023-07-25T10:12:57.142Z,1.58
2023-07-25T10:15:25.984Z,1.65
2023-07-25T10:18:03.091Z,1.48
2023-07-25T10:20:31.462Z,1.20
2023-07-25T10:23:10.947Z,1.48
2023-07-25T10:25:40.552Z,1.10
2023-07-25T10:28:09.638Z,1.45
2023-07-25T10:30:44.840Z,1.25
2023-07-25T10:33:15.029Z,1.45
2023-07-25T10:35:47.465Z,1.15
2023-07-25T10:38:24.704Z,1.30
2023-07-25T10:40:57.117Z,1.33
2023-07-25T10:43:30.198Z,1.30
2023-07-25T10:46:02.738Z,1.48
2023-07-25T10:48:45.548Z,1.30
2023-07-25T10:51:16.422Z,1.08
2023-07-25T10:54:11.650Z,1.77
2023-07-25T10:56:42.243Z,1.40
2023-07-25T10:59:12.319Z,1.48
2023-07-25T11:01:46.434Z,1.38
2023-07-25T11:04:32.068Z,1.00
2023-07-25T11:07:10.708Z,1.17
2023-07-25T11:09:44.201Z,1.30
2023-07-25T11:12:13.999Z,1.30
2023-07-25T11:14:43.931Z,1.27
2023-07-25T11:17:13.371Z,1.00
2023-07-25T11:19:41.757Z,1.15
2023-07-25T11:22:11.387Z,1.30
2023-07-25T11:24:45.167Z,1.30
2023-07-25T11:27:15.090Z,1.48
2023-07-25T11:29:43.380Z,1.52
2023-07-25T11:32:11.513Z,1.27
2023-07-25T11:34:39.604Z,1.50
2023-07-25T11:37:12.417Z,1.40
2023-07-25T11:39:40.524Z,1.40
2023-07-25T11:42:10.489Z,1.27
2023-07-25T11:44:39.093Z,1.48
2023-07-25T11:47:08.060Z,1.50
2023-07-25T11:49:49.436Z,1.30
2023-07-25T11:52:19.033Z,1.15
2023-07-25T11:54:47.454Z,1.30
2023-07-25T11:57:17.124Z,1.30
2023-07-25T11:59:45.256Z,1.00
2023-07-25T12:02:14.264Z,1.40
2023-07-25T12:04:46.491Z,1.30
2023-07-25T12:07:15.488Z,1.40
2023-07-25T12:09:53.312Z,1.30
2023-07-25T12:12:23.288Z,1.20
2023-07-25T12:14:59.656Z,1.30
2023-07-25T12:17:43.749Z,1.20
2023-07-25T12:20:17.448Z,1.40
2023-07-25T12:22:45.974Z,1.30
2023-07-25T12:25:18.785Z,1.30
2023-07-25T12:27:50.277Z,1.80
2023-07-25T12:30:18.830Z,1.15
2023-07-25T12:32:46.942Z,1.20
2023-07-25T12:35:15.124Z,1.48
2023-07-25T12:37:43.202Z,1.30
2023-07-25T12:40:12.294Z,0.90
2023-07-25T12:42:40.371Z,1.13
2023-07-25T12:45:11.849Z,1.17
2023-07-25T12:47:40.081Z,1.23
2023-07-25T12:50:10.447Z,0.98
2023-07-25T12:52:38.740Z,1.05
2023-07-25T12:55:07.460Z,0.90
2023-07-25T12:57:35.724Z,0.98
2023-07-25T13:00:09.703Z,1.20
2023-07-25T13:02:38.719Z,1.20
2023-07-25T13:05:08.400Z,0.80
2023-07-25T13:07:36.731Z,0.98
2023-07-25T13:10:07.399Z,1.00
2023-07-25T13:12:36.258Z,1.00
2023-07-25T13:15:04.819Z,1.13
2023-07-25T13:17:35.646Z,1.10
2023-07-25T13:20:07.822Z,0.95
2023-07-25T13:22:36.070Z,0.85
2023-07-25T13:25:04.640Z,1.10
2023-07-25T13:27:32.790Z,1.08
2023-07-25T13:30:01.747Z,0.75
2023-07-25T13:32:30.243Z,0.60
2023-07-25T13:34:59.693Z,0.70
2023-07-25T13:37:27.777Z,0.82
2023-07-25T13:39:55.894Z,1.00
2023-07-25T13:42:24.424Z,0.90
2023-07-25T13:44:52.525Z,0.70
2023-07-25T13:47:20.646Z,0.80
2023-07-25T13:49:48.825Z,1.02
2023-07-25T13:52:18.595Z,0.80
2023-07-25T13:54:46.721Z,0.88
2023-07-25T13:57:15.241Z,0.80
2023-07-25T13:59:43.479Z,1.10
2023-07-25T14:02:11.685Z,1.00
2023-07-25T14:04:40.522Z,0.90
2023-07-25T14:07:09.015Z,0.90
2023-07-25T14:09:38.445Z,1.20
2023-07-25T14:12:08.505Z,1.00
2023-07-25T14:14:37.640Z,1.30
2023-07-25T14:17:07.890Z,1.00
2023-07-25T14:19:36.029Z,1.08
2023-07-25T14:22:04.175Z,0.90
2023-07-25T14:24:32.391Z,1.17
2023-07-25T14:27:02.008Z,0.90
2023-07-25T14:29:30.103Z,0.87
2023-07-25T14:31:59.330Z,0.65
2023-07-25T14:34:27.503Z,0.98
2023-07-25T14:36:55.577Z,0.90
2023-07-25T14:39:23.689Z,0.70
2023-07-25T14:41:51.755Z,1.17
2023-07-25T14:44:21.206Z,0.98
2023-07-25T14:46:49.741Z,0.75
2023-07-25T14:49:17.875Z,1.30
2023-07-25T14:51:46.056Z,0.90
2023-07-25T14:54:14.180Z,1.48
2023-07-25T14:56:42.268Z,0.73
2023-07-25T14:59:10.353Z,0.77
2023-07-25T15:01:39.962Z,0.70
2023-07-25T15:04:13.210Z,0.60
2023-07-25T15:06:42.483Z,0.80
2023-07-25T15:09:10.735Z,0.60
2023-07-25T15:11:39.113Z,0.88
2023-07-25T15:14:07.321Z,0.80
2023-07-25T15:16:35.778Z,0.77
2023-07-25T15:19:06.800Z,0.88
2023-07-25T15:21:34.924Z,0.60
2023-07-25T15:24:03.711Z,0.60
2023-07-25T15:26:32.277Z,0.52
2023-07-25T15:29:00.762Z,0.70
2023-07-25T15:31:28.989Z,0.63
2023-07-25T15:33:57.197Z,0.70
2023-07-25T15:36:26.727Z,0.65
2023-07-25T15:38:54.956Z,0.80
2023-07-25T15:41:23.198Z,0.70
2023-07-25T15:43:51.301Z,0.80
2023-07-25T15:46:19.444Z,1.08
2023-07-25T15:48:48.717Z,0.75
2023-07-25T15:51:18.228Z,0.70
2023-07-25T15:53:47.794Z,0.77
2023-07-25T15:56:15.980Z,0.80
2023-07-25T15:58:44.065Z,0.70
2023-07-25T16:01:12.236Z,0.75
2023-07-25T16:03:40.444Z,1.17
2023-07-25T16:06:08.510Z,0.93
2023-07-25T16:08:38.209Z,0.90
2023-07-25T16:11:07.946Z,0.90
2023-07-25T16:13:39.596Z,1.00
2023-07-25T16:16:08.014Z,0.75
2023-07-25T16:18:36.163Z,0.63
2023-07-25T16:21:06.119Z,0.80
2023-07-25T16:23:34.383Z,0.80
2023-07-25T16:26:04.547Z,1.33
2023-07-25T16:28:35.969Z,1.35
2023-07-25T16:31:28.329Z,2.50
2023-07-25T16:33:52.164Z,1.17
2023-07-25T16:36:20.304Z,0.73
2023-07-25T16:38:48.575Z,3.53
2023-07-25T16:41:18.661Z,1.50
2023-07-25T16:43:48.242Z,1.10
2023-07-25T16:46:16.645Z,0.80
2023-07-25T16:48:44.806Z,0.50
2023-07-25T16:51:13.236Z,1.00
2023-07-25T16:53:41.417Z,0.93
2023-07-25T16:56:09.563Z,0.70
2023-07-25T16:58:37.660Z,0.50
2023-07-25T17:01:07.248Z,1.05
2023-07-25T17:03:35.475Z,0.80
2023-07-25T17:06:05.233Z,0.73
2023-07-25T17:08:33.590Z,0.95
2023-07-25T17:11:05.405Z,0.45
2023-07-25T17:13:33.616Z,0.50
2023-07-25T17:16:02.102Z,0.93
2023-07-25T17:18:31.559Z,1.05
2023-07-25T17:21:00.370Z,0.70
2023-07-25T17:23:28.531Z,0.75
2023-07-25T17:25:57.148Z,0.80
2023-07-25T17:28:25.294Z,0.50
2023-07-25T17:30:53.436Z,0.90
2023-07-25T17:33:21.567Z,1.10
2023-07-25T17:35:51.270Z,0.70
2023-07-25T17:38:19.409Z,0.65
2023-07-25T17:40:48.388Z,0.70
2023-07-25T17:43:16.718Z,0.70
2023-07-25T17:45:45.190Z,0.88
2023-07-25T17:48:14.683Z,0.43
2023-07-25T17:50:42.900Z,0.70
2023-07-25T17:53:13.495Z,0.88
2023-07-25T17:55:41.931Z,0.77
2023-07-25T17:58:11.983Z,0.55
2023-07-25T18:00:40.555Z,0.60
2023-07-25T18:03:09.549Z,0.60
2023-07-25T18:05:37.658Z,0.63
2023-07-25T18:08:06.298Z,0.63
2023-07-25T18:10:35.814Z,0.60
2023-07-25T18:13:03.863Z,0.65
2023-07-25T18:15:31.917Z,0.70
2023-07-25T18:18:00.808Z,0.45
2023-07-25T18:20:29.382Z,0.55
2023-07-25T18:22:57.537Z,0.70
2023-07-25T18:25:26.002Z,0.70
2023-07-25T18:27:55.448Z,0.55
2023-07-25T18:30:23.550Z,0.35
2023-07-25T18:32:51.927Z,0.55
2023-07-25T18:35:20.050Z,0.77
2023-07-25T18:37:48.516Z,0.60
2023-07-25T18:40:17.297Z,0.60
2023-07-25T18:42:45.431Z,0.50
2023-07-25T18:45:14.971Z,0.60
2023-07-25T18:47:43.504Z,0.65
2023-07-25T18:50:12.127Z,0.50
2023-07-25T18:52:40.187Z,0.60
2023-07-25T18:55:10.289Z,0.50
2023-07-25T18:57:38.571Z,0.70
2023-07-25T19:00:08.218Z,0.60
2023-07-25T19:02:37.707Z,0.80
2023-07-25T19:05:07.284Z,0.57
2023-07-25T19:07:35.444Z,0.75
2023-07-25T19:10:03.625Z,0.68
2023-07-25T19:12:31.742Z,0.35
2023-07-25T19:14:59.871Z,0.70
2023-07-25T19:17:28.349Z,0.60
2023-07-25T19:19:57.840Z,0.70
2023-07-25T19:22:25.980Z,0.40
2023-07-25T19:24:54.114Z,0.70
2023-07-25T19:27:22.198Z,0.70
2023-07-25T19:29:50.501Z,0.70
2023-07-25T19:32:18.751Z,0.75
2023-07-25T19:34:46.836Z,0.70
2023-07-25T19:37:16.254Z,0.73
2023-07-25T19:39:44.335Z,0.60
2023-07-25T19:42:12.525Z,0.68
2023-07-25T19:44:40.586Z,0.88
2023-07-25T19:47:08.731Z,0.75
2023-07-25T19:49:36.788Z,0.77
2023-07-25T19:52:05.586Z,0.63
2023-07-25T19:54:35.347Z,0.70
2023-07-25T19:57:03.590Z,0.82
2023-07-25T19:59:31.752Z,0.70
2023-07-25T20:01:59.866Z,0.65
2023-07-25T20:04:27.929Z,0.90
2023-07-25T20:06:56.047Z,0.95
2023-07-25T20:09:24.228Z,0.65
2023-07-25T20:11:53.667Z,0.80
2023-07-25T20:14:22.133Z,0.82
2023-07-25T20:16:50.261Z,0.70
2023-07-25T20:19:21.280Z,0.68
2023-07-25T20:21:49.331Z,0.77
2023-07-25T20:24:17.383Z,0.82
2023-07-25T20:26:45.462Z,0.88
2023-07-25T20:29:14.908Z,0.82
2023-07-25T20:31:42.990Z,0.68
2023-07-25T20:34:11.041Z,0.90
2023-07-25T20:36:39.198Z,0.90
2023-07-25T20:39:07.329Z,0.77
2023-07-25T20:41:35.447Z,0.85
2023-07-25T20:44:03.578Z,0.85
2023-07-25T20:46:33.340Z,1.00
2023-07-25T20:49:01.700Z,0.90
2023-07-25T20:51:30.162Z,1.05
2023-07-25T20:53:58.244Z,0.75
2023-07-25T20:56:26.414Z,0.93
2023-07-25T20:58:54.539Z,0.80
2023-07-25T21:01:22.747Z,0.80
2023-07-25T21:03:52.229Z,0.90
2023-07-25T21:06:20.522Z,0.85
2023-07-25T21:08:48.637Z,1.00
2023-07-25T21:11:19.587Z,0.90
2023-07-25T21:13:48.749Z,0.85
2023-07-25T21:16:16.938Z,0.90
2023-07-25T21:18:45.311Z,0.85
2023-07-25T21:21:14.906Z,1.08
2023-07-25T21:23:42.985Z,0.98
2023-07-25T21:26:11.094Z,0.90
2023-07-25T21:28:39.203Z,1.10
2023-07-25T21:31:10.123Z,1.05
2023-07-25T21:33:38.538Z,0.80
2023-07-25T21:36:12.620Z,0.93
2023-07-25T21:38:43.408Z,0.98
2023-07-25T21:41:14.053Z,1.20
2023-07-25T21:43:43.344Z,0.85
2023-07-25T21:46:11.738Z,1.00
2023-07-25T21:48:40.056Z,0.70
2023-07-25T21:51:08.788Z,1.13
2023-07-25T21:53:36.859Z,1.20
2023-07-25T21:56:06.680Z,1.10
2023-07-25T21:58:34.778Z,1.10
2023-07-25T22:01:02.913Z,0.90
2023-07-25T22:03:33.207Z,0.88
2023-07-25T22:06:01.722Z,1.00
2023-07-25T22:08:29.811Z,0.98
2023-07-25T22:10:57.994Z,1.08
2023-07-25T22:13:27.591Z,1.10
2023-07-25T22:15:55.915Z,1.52
2023-07-25T22:18:24.289Z,1.33
2023-07-25T22:20:53.276Z,1.23
2023-07-25T22:23:22.234Z,1.23
2023-07-25T22:25:50.392Z,1.13
2023-07-25T22:28:18.518Z,1.30
2023-07-25T22:30:47.938Z,1.40
2023-07-25T22:33:16.017Z,1.42
2023-07-25T22:35:44.134Z,1.33
2023-07-25T22:38:12.343Z,1.17
2023-07-25T22:40:42.099Z,1.35
2023-07-25T22:43:10.188Z,1.52
2023-07-25T22:45:38.296Z,1.40
2023-07-25T22:48:07.876Z,1.40
2023-07-25T22:50:35.950Z,1.40
2023-07-25T22:53:04.098Z,1.67
2023-07-25T22:55:34.441Z,1.40
2023-07-25T22:58:02.594Z,1.40
2023-07-25T23:00:30.703Z,1.25
2023-07-25T23:02:58.915Z,1.30
2023-07-25T23:05:28.403Z,1.50
2023-07-25T23:07:56.484Z,1.48
2023-07-25T23:10:24.782Z,1.50
2023-07-25T23:12:52.894Z,1.30
2023-07-25T23:15:21.013Z,1.40
2023-07-25T23:17:49.376Z,1.40
2023-07-25T23:20:17.952Z,1.50
2023-07-25T23:22:47.333Z,1.42
2023-07-25T23:25:15.397Z,1.40
2023-07-25T23:27:43.465Z,1.20
2023-07-25T23:30:13.130Z,1.65
2023-07-25T23:32:41.526Z,1.63
2023-07-25T23:35:10.740Z,1.40
2023-07-25T23:37:38.831Z,1.50
2023-07-25T23:40:10.324Z,1.30
2023-07-25T23:42:38.372Z,1.67
2023-07-25T23:45:07.697Z,1.60
2023-07-25T23:47:35.870Z,1.50
2023-07-25T23:50:05.049Z,1.50
2023-07-25T23:52:34.910Z,1.50
2023-07-25T23:55:03.475Z,1.63
2023-07-25T23:57:32.911Z,1.58
